Time;durP1;ratioP1;P1;durP2;ratioP2;P2;SDS_P1;SDS_P2;PMS_P1;PMS_P2;Temp;Humidity;BMP_temperature;BMP_pressure;BME280_temperature;BME280_humidity;BME280_pressure;Samples;Min_cycle;Max_cycle;Signal;HPM_P1;HPM_P2
2022/03/15 00:02:01;;;;;;;;;19.50;14.25;;;;;11.52;59.50;102135.34;5060198;28;45307;-64
2022/03/15 00:04:27;;;;;;;;;16.00;14.75;;;;;11.52;59.68;102135.34;5075293;27;47240;-64
2022/03/15 00:06:53;;;;;;;;;16.00;13.50;;;;;11.51;59.63;102123.22;5059898;28;45800;-64
2022/03/15 00:09:18;;;;;;;;;11.75;9.25;;;;;11.50;59.58;102129.28;5059778;28;45264;-63
2022/03/15 00:11:44;;;;;;;;;15.25;13.75;;;;;11.47;59.48;102119.78;5059822;28;45423;-63
2022/03/15 00:14:14;;;;;;;;;18.25;12.25;;;;;11.44;60.03;102121.56;5059433;28;46087;-63
2022/03/15 00:16:40;;;;;;;;;19.25;14.00;;;;;11.42;60.19;102125.91;5060025;28;45835;-63
2022/03/15 00:19:05;;;;;;;;;12.75;10.00;;;;;11.42;60.12;102110.28;5059897;28;45422;-63
2022/03/15 00:21:32;;;;;;;;;11.25;9.50;;;;;11.41;60.63;102121.56;5059897;28;45298;-63
2022/03/15 00:23:59;;;;;;;;;12.75;11.75;;;;;11.40;60.29;102112.03;5059467;28;46916;-63
2022/03/15 00:26:25;;;;;;;;;14.00;13.00;;;;;11.36;60.64;102108.59;5059258;28;45296;-63
2022/03/15 00:28:50;;;;;;;;;11.50;11.50;;;;;11.35;60.50;102106.00;5058375;28;45196;-63
2022/03/15 00:31:16;;;;;;;;;18.75;11.75;;;;;11.31;60.58;102099.97;5059768;28;45497;-62
2022/03/15 00:33:42;;;;;;;;;14.75;13.25;;;;;11.30;60.76;102102.59;5059159;28;45448;-63
2022/03/15 00:36:08;;;;;;;;;19.75;12.00;;;;;11.31;60.78;102104.31;5059466;28;45173;-62
2022/03/15 00:38:34;;;;;;;;;11.25;10.00;;;;;11.32;60.74;102111.25;5059509;28;45271;-63
2022/03/15 00:41:00;;;;;;;;;11.50;10.75;;;;;11.33;60.83;102110.34;5059516;28;45540;-63
2022/03/15 00:43:25;;;;;;;;;13.50;10.75;;;;;11.32;60.66;102108.63;5059224;28;46094;-63
2022/03/15 00:45:51;;;;;;;;;16.75;11.00;;;;;11.34;60.90;102104.28;5059435;28;45397;-63
2022/03/15 00:48:19;;;;;;;;;16.00;12.50;;;;;11.34;60.87;102105.13;5059466;28;45434;-62
2022/03/15 00:50:44;;;;;;;;;14.75;10.75;;;;;11.35;60.89;102098.19;5062697;28;45465;-63
2022/03/15 00:53:10;;;;;;;;;15.50;11.75;;;;;11.35;61.10;102104.25;5062570;28;45423;-63
2022/03/15 00:55:36;;;;;;;;;12.25;11.75;;;;;11.35;60.87;102106.00;5063104;28;45306;-63
2022/03/15 00:58:01;;;;;;;;;15.25;11.25;;;;;11.33;61.20;102108.63;5063021;28;45296;-63
2022/03/15 01:00:27;;;;;;;;;12.50;10.75;;;;;11.33;61.17;102090.41;5062965;28;45515;-63
2022/03/15 01:02:53;;;;;;;;;502.60;376.40;;;;;11.30;60.79;102094.78;5062524;28;46284;-62
2022/03/15 01:05:18;;;;;;;;;11.00;9.75;;;;;11.28;61.05;102076.56;5062944;28;45160;-62
2022/03/15 01:07:44;;;;;;;;;12.50;7.75;;;;;11.27;60.88;102086.13;5062735;28;45255;-62
2022/03/15 01:10:09;;;;;;;;;18.25;13.00;;;;;11.25;61.24;102079.22;5062665;28;45217;-62
2022/03/15 01:12:35;;;;;;;;;17.25;12.25;;;;;11.24;61.46;102078.34;5060850;28;46874;-61
2022/03/15 01:15:00;;;;;;;;;12.50;11.25;;;;;11.24;61.38;102078.34;5062743;28;45172;-62
2022/03/15 01:17:26;;;;;;;;;12.75;8.50;;;;;11.25;61.20;102074.00;5062729;28;45390;-64
2022/03/15 01:19:51;;;;;;;;;15.75;12.25;;;;;11.23;61.33;102065.34;5060283;28;45352;-64
2022/03/15 01:22:16;;;;;;;;;15.75;13.50;;;;;11.26;61.46;102066.19;5061927;28;45938;-64
2022/03/15 01:24:42;;;;;;;;;16.50;13.50;;;;;11.28;61.23;102072.22;5062276;28;45318;-64
2022/03/15 01:27:07;;;;;;;;;15.50;12.50;;;;;11.28;61.53;102066.16;5062176;28;45473;-62
2022/03/15 01:29:32;;;;;;;;;14.50;13.00;;;;;11.32;61.54;102067.00;5062496;28;45309;-62
2022/03/15 01:31:59;;;;;;;;;16.25;13.00;;;;;11.33;61.63;102061.78;5061951;28;46016;-61
2022/03/15 01:34:25;;;;;;;;;12.75;12.75;;;;;11.35;61.79;102054.81;5062355;28;45271;-62
2022/03/15 01:36:50;;;;;;;;;13.50;9.50;;;;;11.37;61.49;102058.25;5062116;28;45273;-62
2022/03/15 01:39:16;;;;;;;;;15.00;13.25;;;;;11.33;61.19;102040.09;5062238;28;45297;-62
2022/03/15 01:41:44;;;;;;;;;16.00;12.75;;;;;11.34;61.47;102039.22;5061945;28;47099;-62
2022/03/15 01:44:16;;;;;;;;;13.50;13.00;;;;;11.34;61.33;102042.69;5060928;28;45321;-62
2022/03/15 01:46:42;;;;;;;;;13.00;12.50;;;;;11.35;61.41;102041.78;5062047;28;45225;-62
2022/03/15 01:49:07;;;;;;;;;16.25;14.00;;;;;11.34;61.86;102029.66;5062231;28;45409;-61
2022/03/15 01:51:33;;;;;;;;;13.00;10.00;;;;;11.34;61.72;102021.84;5061650;28;45206;-61
2022/03/15 01:53:58;;;;;;;;;16.75;12.50;;;;;11.34;61.80;102027.06;5061807;28;45222;-62
2022/03/15 01:56:24;;;;;;;;;19.50;12.50;;;;;11.31;62.12;102026.22;5061979;28;45197;-61
2022/03/15 01:58:49;;;;;;;;;15.00;10.50;;;;;11.28;62.03;102020.19;5061918;28;45242;-61
2022/03/15 02:01:15;;;;;;;;;14.00;12.25;;;;;11.27;62.23;102008.06;5060956;28;46107;-61
2022/03/15 02:03:40;;;;;;;;;12.75;12.75;;;;;11.26;62.34;102013.28;5061893;28;45227;-61
2022/03/15 02:06:05;;;;;;;;;17.00;12.25;;;;;11.26;62.43;102008.06;5061625;28;45323;-62
2022/03/15 02:08:32;;;;;;;;;11.50;9.00;;;;;11.25;62.55;102006.34;5060522;28;45589;-62
2022/03/15 02:10:57;;;;;;;;;14.75;10.75;;;;;11.27;62.41;102010.66;5061149;28;46355;-63
2022/03/15 02:13:23;;;;;;;;;9.75;9.25;;;;;11.25;62.21;101994.19;5061711;28;45322;-63
2022/03/15 02:15:49;;;;;;;;;13.75;10.50;;;;;11.30;62.46;101988.06;5061649;28;45449;-62
2022/03/15 02:18:15;;;;;;;;;16.75;12.75;;;;;11.31;62.16;101990.66;5061588;28;45342;-63
2022/03/15 02:20:40;;;;;;;;;10.00;10.00;;;;;11.36;62.14;101990.59;5061205;28;45403;-63
2022/03/15 02:23:05;;;;;;;;;15.00;9.25;;;;;11.40;62.37;101990.53;5060386;28;45327;-62
2022/03/15 02:25:31;;;;;;;;;13.00;11.25;;;;;11.43;62.19;101985.34;5061097;28;45473;-62
2022/03/15 02:27:56;;;;;;;;;10.00;7.75;;;;;11.41;62.22;101978.38;5061683;28;45501;-61
2022/03/15 02:30:22;;;;;;;;;10.75;8.25;;;;;11.45;62.35;101983.56;5061354;28;46315;-62
2022/03/15 02:32:48;;;;;;;;;14.50;8.50;;;;;11.46;62.29;101980.09;5076787;27;45312;-62
2022/03/15 02:35:15;;;;;;;;;12.00;10.25;;;;;11.47;62.87;101965.34;5061347;28;45452;-62
2022/03/15 02:37:40;;;;;;;;;8.00;7.25;;;;;11.49;62.80;101967.03;5061382;28;45481;-62
2022/03/15 02:40:06;;;;;;;;;13.25;10.00;;;;;11.51;63.04;101969.63;5060979;28;46034;-62
2022/03/15 02:42:32;;;;;;;;;11.50;8.00;;;;;11.51;62.92;101962.66;5061165;28;45893;-61
2022/03/15 02:44:57;;;;;;;;;8.50;8.50;;;;;11.53;63.42;101965.25;5061230;28;45330;-62
2022/03/15 02:47:22;;;;;;;;;10.50;9.75;;;;;11.54;63.40;101964.38;5061223;28;45486;-62
2022/03/15 02:49:48;;;;;;;;;9.00;8.00;;;;;11.57;63.49;101964.31;5060905;28;45305;-61
2022/03/15 02:52:15;;;;;;;;;7.00;7.00;;;;;11.61;63.74;101966.00;5060884;28;45394;-62
2022/03/15 02:54:41;;;;;;;;;11.00;8.25;;;;;11.63;63.64;101961.66;5060996;28;45285;-62
2022/03/15 02:57:09;;;;;;;;;5.25;5.00;;;;;11.67;63.72;101952.94;5061110;28;45354;-62
2022/03/15 02:59:35;;;;;;;;;9.00;9.00;;;;;11.67;63.92;101947.72;5060590;28;45645;-62
2022/03/15 03:02:01;;;;;;;;;14.25;5.75;;;;;11.68;64.61;101944.25;5061143;28;45894;-62
2022/03/15 03:04:27;;;;;;;;;8.50;7.75;;;;;11.67;64.72;101945.13;5060877;28;45313;-62
2022/03/15 03:06:52;;;;;;;;;12.50;8.00;;;;;11.71;65.37;101931.19;5060706;28;45374;-62
2022/03/15 03:09:18;;;;;;;;;7.25;6.75;;;;;11.74;66.03;101938.94;5060454;28;46565;-63
2022/03/15 03:11:44;;;;;;;;;11.00;7.00;;;;;11.77;65.91;101938.91;5060587;28;45479;-62
2022/03/15 03:14:13;;;;;;;;;7.50;6.00;;;;;11.77;66.73;101933.69;5059909;28;45401;-62
2022/03/15 03:16:40;;;;;;;;;12.00;7.25;;;;;11.82;66.47;101936.28;5060933;28;45246;-62
2022/03/15 03:19:08;;;;;;;;;11.25;8.00;;;;;11.82;67.59;101944.09;5060796;28;46085;-61
2022/03/15 03:21:36;;;;;;;;;12.50;10.75;;;;;11.82;67.20;101936.28;5060276;28;45702;-61
2022/03/15 03:24:04;;;;;;;;;11.25;8.00;;;;;11.83;67.80;101928.44;5060498;28;45300;-61
2022/03/15 03:26:29;;;;;;;;;9.50;7.25;;;;;11.87;68.37;101932.72;5058937;28;45527;-61
2022/03/15 03:28:54;;;;;;;;;6.75;6.75;;;;;11.88;68.67;101929.25;5057743;28;46270;-61
2022/03/15 03:31:20;;;;;;;;;12.50;7.00;;;;;11.90;68.78;101928.34;5058086;28;45300;-62
2022/03/15 03:33:45;;;;;;;;;7.50;6.00;;;;;11.91;69.02;101927.47;5057751;28;45341;-62
2022/03/15 03:36:11;;;;;;;;;10.50;9.00;;;;;11.88;69.57;101929.25;5057900;28;45520;-62
2022/03/15 03:38:37;;;;;;;;;8.50;7.00;;;;;11.87;68.65;101922.31;5058129;28;45514;-62
2022/03/15 03:41:04;;;;;;;;;8.25;7.00;;;;;11.89;70.65;101927.50;5058360;28;45945;-62
2022/03/15 03:43:31;;;;;;;;;7.00;7.00;;;;;11.90;70.67;101931.81;5059568;28;45500;-64
2022/03/15 03:45:57;;;;;;;;;9.25;6.50;;;;;11.88;71.08;101926.63;5058797;28;45749;-64
2022/03/15 03:48:25;;;;;;;;;9.00;8.00;;;;;11.88;71.36;101925.78;5057607;28;45617;-63
2022/03/15 03:50:51;;;;;;;;;9.00;8.50;;;;;11.90;71.15;101930.97;5057620;28;45399;-63
2022/03/15 03:53:18;;;;;;;;;7.00;7.00;;;;;11.87;71.82;101924.91;5057713;28;45430;-62
2022/03/15 03:55:44;;;;;;;;;9.75;8.75;;;;;11.90;72.21;101923.16;5057611;28;45674;-62
2022/03/15 03:58:10;;;;;;;;;8.75;7.25;;;;;11.90;72.65;101917.94;5057586;28;45386;-62
2022/03/15 04:00:36;;;;;;;;;13.75;9.00;;;;;11.90;72.89;101918.81;5058105;28;45610;-62
2022/03/15 04:03:01;;;;;;;;;11.25;9.50;;;;;11.91;73.33;101915.31;5059919;28;45228;-62
2022/03/15 04:05:30;;;;;;;;;10.00;7.25;;;;;11.90;73.15;101916.19;5059858;28;45244;-61
2022/03/15 04:07:59;;;;;;;;;10.50;8.75;;;;;11.89;74.05;101914.47;5047099;28;46201;-61
2022/03/15 04:10:29;;;;;;;;;6.25;6.25;;;;;11.86;73.72;101914.53;5059717;28;45781;-61
2022/03/15 04:12:55;;;;;;;;;8.50;4.50;;;;;11.87;74.35;101913.63;5059740;28;45346;-61
2022/03/15 04:15:22;;;;;;;;;8.25;8.00;;;;;11.86;74.57;101917.13;5058551;28;45422;-61
2022/03/15 04:17:48;;;;;;;;;12.50;7.50;;;;;11.84;75.17;101908.47;5059186;28;47118;-61
2022/03/15 04:20:13;;;;;;;;;15.75;11.50;;;;;11.81;75.12;101909.38;5057045;28;45429;-61
2022/03/15 04:22:39;;;;;;;;;15.00;9.75;;;;;11.75;75.82;101896.38;5057417;28;45982;-61
2022/03/15 04:25:05;;;;;;;;;10.25;9.75;;;;;11.80;76.00;101907.63;5056379;28;45314;-61
2022/03/15 04:27:30;;;;;;;;;10.50;7.50;;;;;11.83;76.29;101901.53;5057235;28;46093;-61
2022/03/15 04:29:56;;;;;;;;;8.00;8.00;;;;;11.87;76.44;101900.63;5057186;28;45291;-61
2022/03/15 04:32:21;;;;;;;;;7.75;7.75;;;;;11.90;76.69;101903.16;5057371;28;45620;-61
2022/03/15 04:34:46;;;;;;;;;9.25;9.25;;;;;11.90;76.54;101897.09;5058675;28;45374;-61
2022/03/15 04:37:12;;;;;;;;;9.25;8.00;;;;;11.94;76.79;101906.59;5059518;28;45291;-62
2022/03/15 04:39:37;;;;;;;;;12.00;10.00;;;;;11.95;77.05;101895.28;5059209;28;45243;-62
2022/03/15 04:42:05;;;;;;;;;11.50;11.00;;;;;11.94;77.51;101891.81;5059853;28;45412;-63
2022/03/15 04:44:30;;;;;;;;;11.00;8.75;;;;;11.95;77.59;101890.94;5059375;28;45452;-63
2022/03/15 04:46:56;;;;;;;;;13.75;9.75;;;;;11.94;77.71;101888.34;5059689;28;45332;-63
2022/03/15 04:49:21;;;;;;;;;10.00;9.00;;;;;11.97;78.07;101883.09;5059367;28;45282;-63
2022/03/15 04:51:48;;;;;;;;;10.25;10.25;;;;;11.97;78.01;101888.31;5075000;28;45436;-62
2022/03/15 04:54:13;;;;;;;;;10.25;9.00;;;;;11.96;77.64;101877.03;5059214;28;45416;-63
2022/03/15 04:56:39;;;;;;;;;10.00;10.00;;;;;11.93;77.71;101882.28;5059287;28;46450;-63
2022/03/15 04:59:05;;;;;;;;;10.00;8.75;;;;;11.94;78.53;101888.34;5059028;28;45322;-63
2022/03/15 05:01:31;;;;;;;;;13.00;7.50;;;;;11.90;78.67;101881.47;5059464;28;45364;-63
2022/03/15 05:03:56;;;;;;;;;10.50;9.00;;;;;11.87;78.45;101878.03;5059184;28;45185;-62
2022/03/15 05:06:21;;;;;;;;;9.75;8.00;;;;;11.88;79.03;101879.75;5058899;28;47183;-63
2022/03/15 05:08:48;;;;;;;;;11.25;8.00;;;;;11.91;79.22;101889.25;5057564;28;45735;-64
2022/03/15 05:11:14;;;;;;;;;8.00;8.00;;;;;11.92;79.20;101879.69;5059444;28;45441;-62
2022/03/15 05:13:42;;;;;;;;;12.50;11.25;;;;;11.94;79.65;101883.16;5059008;28;45261;-60
2022/03/15 05:16:15;;;;;;;;;15.00;11.75;;;;;11.95;80.17;101882.25;5058962;28;46324;-60
2022/03/15 05:18:41;;;;;;;;;14.50;13.50;;;;;11.93;80.25;101869.25;5058892;28;45226;-59
2022/03/15 05:21:07;;;;;;;;;16.75;9.25;;;;;11.96;80.26;101873.56;5058483;28;45523;-59
2022/03/15 05:23:33;;;;;;;;;20.50;16.00;;;;;11.99;80.37;101876.09;5062217;27;46608;-59
2022/03/15 05:25:58;;;;;;;;;16.00;12.75;;;;;12.01;80.68;101872.59;5058355;28;45401;-60
2022/03/15 05:28:24;;;;;;;;;18.25;16.00;;;;;12.03;80.78;101873.47;5058661;28;45287;-60
2022/03/15 05:30:50;;;;;;;;;20.25;16.25;;;;;12.05;80.90;101863.00;5058987;28;45541;-59
2022/03/15 05:33:16;;;;;;;;;18.75;13.25;;;;;12.08;81.08;101870.78;5058356;28;45517;-60
2022/03/15 05:35:41;;;;;;;;;15.50;12.25;;;;;12.11;81.35;101873.34;5058905;28;46091;-60
2022/03/15 05:38:07;;;;;;;;;16.00;14.00;;;;;12.12;81.04;101867.22;5062069;28;45219;-60
2022/03/15 05:40:32;;;;;;;;;17.25;15.00;;;;;12.13;81.48;101884.59;5062287;28;45298;-60
2022/03/15 05:42:58;;;;;;;;;14.50;11.50;;;;;12.12;81.04;101878.50;5062030;28;45497;-61
2022/03/15 05:45:25;;;;;;;;;16.75;12.75;;;;;12.11;81.30;101881.16;5061963;28;45253;-61
2022/03/15 05:47:51;;;;;;;;;16.00;12.50;;;;;12.13;81.51;101879.38;5061781;28;45998;-60
2022/03/15 05:50:16;;;;;;;;;18.75;15.50;;;;;12.12;81.48;101872.44;5061915;28;45309;-61
2022/03/15 05:52:42;;;;;;;;;17.00;15.50;;;;;12.11;81.82;101875.94;5061830;28;45568;-68
2022/03/15 05:55:09;;;;;;;;;15.00;13.25;;;;;12.10;81.54;101889.84;5060415;28;45987;-62
2022/03/15 05:57:34;;;;;;;;;20.75;18.75;;;;;12.07;82.43;101887.28;5077152;27;45348;-60
2022/03/15 06:00:00;;;;;;;;;25.50;17.75;;;;;12.08;82.49;101889.00;5060413;28;45350;-60
2022/03/15 06:02:25;;;;;;;;;20.75;14.75;;;;;12.05;82.64;101895.13;5061570;28;45310;-63
2022/03/15 06:04:50;;;;;;;;;21.25;16.25;;;;;12.03;82.85;101890.84;5061515;28;45363;-62
2022/03/15 06:07:16;;;;;;;;;15.25;14.25;;;;;12.00;83.46;101885.66;5061253;28;45456;-60
2022/03/15 06:09:41;;;;;;;;;22.25;16.50;;;;;11.95;84.14;101890.06;5061728;28;45226;-60
2022/03/15 06:12:07;;;;;;;;;19.50;16.00;;;;;11.92;84.12;101892.72;5060979;28;45172;-63
2022/03/15 06:14:32;;;;;;;;;15.00;13.00;;;;;11.87;84.69;101892.81;5061514;28;45251;-69
2022/03/15 06:16:58;;;;;;;;;18.50;16.25;;;;;11.86;85.21;101902.34;5061238;28;45432;-64
2022/03/15 06:19:23;;;;;;;;;16.75;14.25;;;;;11.85;84.83;101895.44;5061536;28;45144;-60
2022/03/15 06:21:49;;;;;;;;;21.50;16.50;;;;;11.83;85.23;101897.19;5060946;28;45411;-60
2022/03/15 06:24:14;;;;;;;;;20.25;19.75;;;;;11.82;85.66;101894.63;5060892;28;45264;-60
2022/03/15 06:26:43;;;;;;;;;21.25;16.00;;;;;11.82;85.46;101897.22;5060896;28;45210;-60
2022/03/15 06:29:09;;;;;;;;;17.00;16.00;;;;;11.83;85.86;101898.94;5061355;28;45289;-59
2022/03/15 06:31:34;;;;;;;;;25.75;21.50;;;;;11.83;85.77;101894.59;5061031;28;45342;-61
2022/03/15 06:34:01;;;;;;;;;22.50;18.75;;;;;11.83;85.63;101897.19;5060191;28;46038;-59
2022/03/15 06:36:26;;;;;;;;;27.25;22.00;;;;;11.80;86.17;101892.00;5060143;28;45239;-58
2022/03/15 06:38:53;;;;;;;;;21.00;17.00;;;;;11.78;86.22;101891.16;5060779;28;45344;-59
2022/03/15 06:41:19;;;;;;;;;28.00;21.50;;;;;11.78;86.53;101896.38;5060758;28;45700;-60
2022/03/15 06:43:45;;;;;;;;;22.00;20.75;;;;;11.80;86.85;101893.75;5060882;28;45332;-59
2022/03/15 06:46:10;;;;;;;;;25.00;21.25;;;;;11.79;87.41;101886.81;5060652;28;46598;-58
2022/03/15 06:48:36;;;;;;;;;23.50;22.50;;;;;11.78;87.34;101893.78;5061132;28;45424;-59
2022/03/15 06:51:02;;;;;;;;;18.50;17.50;;;;;11.76;87.73;101890.31;5060425;28;45390;-59
2022/03/15 06:53:29;;;;;;;;;21.00;16.75;;;;;11.76;87.59;101894.66;5060834;28;46312;-59
2022/03/15 06:55:54;;;;;;;;;22.50;20.50;;;;;11.77;87.77;101886.81;5060738;28;45984;-59
2022/03/15 06:58:20;;;;;;;;;17.25;16.25;;;;;11.79;87.68;101900.69;5060881;28;45315;-59
2022/03/15 07:00:45;;;;;;;;;28.75;22.00;;;;;11.78;87.58;101891.16;5059993;28;45399;-60
2022/03/15 07:03:11;;;;;;;;;27.75;26.25;;;;;11.76;87.93;101879.88;5060744;28;45442;-60
2022/03/15 07:05:36;;;;;;;;;21.50;20.50;;;;;11.81;88.06;101883.34;5060010;28;45279;-58
2022/03/15 07:08:02;;;;;;;;;23.50;20.75;;;;;11.81;87.88;101880.75;5060699;28;45609;-57
2022/03/15 07:10:27;;;;;;;;;23.75;21.00;;;;;11.79;87.90;101872.06;5059962;28;45406;-58
2022/03/15 07:12:53;;;;;;;;;26.75;17.75;;;;;11.82;88.03;101881.59;5059932;28;45772;-59
2022/03/15 07:15:20;;;;;;;;;19.75;14.50;;;;;11.84;88.24;101883.28;5060212;28;45354;-58
2022/03/15 07:17:54;;;;;;;;;23.25;19.75;;;;;11.82;88.12;101889.41;5060722;28;45195;-59
2022/03/15 07:20:20;;;;;;;;;31.25;26.00;;;;;11.77;88.27;101884.22;5060085;28;45404;-58
2022/03/15 07:22:46;;;;;;;;;29.00;25.00;;;;;11.83;88.31;101894.59;5059931;28;46244;-58
2022/03/15 07:25:11;;;;;;;;;28.75;22.75;;;;;11.86;88.24;101899.75;5057589;28;45476;-58
2022/03/15 07:27:37;;;;;;;;;28.00;22.50;;;;;11.88;88.63;101900.59;5059818;28;45466;-58
2022/03/15 07:30:04;;;;;;;;;22.75;22.00;;;;;11.91;88.33;101896.22;5058609;28;45473;-58
2022/03/15 07:32:30;;;;;;;;;28.00;24.00;;;;;11.92;88.78;101896.19;5058389;28;45401;-59
2022/03/15 07:34:56;;;;;;;;;31.00;23.75;;;;;11.95;88.73;101895.28;5059607;28;45334;-59
2022/03/15 07:37:21;;;;;;;;;37.25;27.25;;;;;11.93;88.87;101899.66;5060101;28;45236;-59
2022/03/15 07:39:46;;;;;;;;;25.25;22.25;;;;;11.93;88.78;101903.13;5059872;28;45206;-59
2022/03/15 07:42:13;;;;;;;;;26.50;22.00;;;;;11.95;89.29;101905.69;5059578;28;45359;-59
2022/03/15 07:44:42;;;;;;;;;29.25;23.50;;;;;11.97;89.38;101903.94;5059964;28;45739;-58
2022/03/15 07:47:07;;;;;;;;;24.00;23.00;;;;;11.99;89.55;101899.56;5059880;28;45302;-58
2022/03/15 07:49:32;;;;;;;;;31.75;29.00;;;;;12.01;89.52;101883.00;5059847;28;45361;-58
2022/03/15 07:51:58;;;;;;;;;28.50;25.75;;;;;12.05;89.49;101876.03;5059636;28;45441;-58
2022/03/15 07:54:23;;;;;;;;;26.50;23.00;;;;;12.08;89.32;101876.00;5059466;28;45342;-59
2022/03/15 07:56:50;;;;;;;;;34.00;27.25;;;;;12.13;89.17;101881.97;5059937;28;45433;-58
2022/03/15 07:59:15;;;;;;;;;30.50;24.00;;;;;12.16;88.74;101869.75;5058780;28;45464;-58
2022/03/15 08:01:41;;;;;;;;;29.00;21.25;;;;;12.17;88.57;101868.88;5059616;28;45447;-58
2022/03/15 08:04:06;;;;;;;;;27.25;22.75;;;;;12.15;88.51;101875.00;5059967;28;45236;-59
2022/03/15 08:06:35;;;;;;;;;26.75;26.25;;;;;12.15;88.49;101878.47;5058720;28;45188;-59
2022/03/15 08:09:00;;;;;;;;;22.00;20.50;;;;;12.15;88.33;101872.38;5059491;28;45263;-59
2022/03/15 08:11:26;;;;;;;;;28.75;22.00;;;;;12.12;88.29;101873.31;5075081;27;47154;-59
2022/03/15 08:13:53;;;;;;;;;25.75;22.75;;;;;12.09;88.56;101868.16;5059242;28;45300;-58
2022/03/15 08:16:21;;;;;;;;;22.25;22.25;;;;;12.12;88.46;101878.50;5059844;28;45300;-59
2022/03/15 08:18:46;;;;;;;;;25.50;22.00;;;;;12.10;88.65;101875.06;5059391;28;45499;-60
2022/03/15 08:21:12;;;;;;;;;33.50;26.75;;;;;12.11;88.84;101870.72;5059305;28;46097;-60
2022/03/15 08:23:37;;;;;;;;;30.75;22.50;;;;;12.12;88.81;101872.44;5059173;28;45206;-60
2022/03/15 08:26:03;;;;;;;;;23.25;21.50;;;;;12.12;88.78;101872.44;5059299;28;45346;-60
2022/03/15 08:28:28;;;;;;;;;29.25;22.00;;;;;12.13;88.54;101874.16;5059050;28;45585;-60
2022/03/15 08:30:54;;;;;;;;;33.50;27.50;;;;;12.11;88.36;101865.50;5074845;27;48145;-59
2022/03/15 08:33:21;;;;;;;;;34.50;28.50;;;;;12.06;88.92;101862.13;5058494;28;45312;-59
2022/03/15 08:35:47;;;;;;;;;34.50;31.00;;;;;12.09;88.52;101875.97;5059510;28;45386;-59
2022/03/15 08:38:12;;;;;;;;;36.25;29.75;;;;;12.07;88.77;101871.66;5059068;28;45596;-60
2022/03/15 08:40:38;;;;;;;;;32.75;28.25;;;;;12.08;88.92;101876.00;5059316;28;45240;-59
2022/03/15 08:43:04;;;;;;;;;36.50;27.75;;;;;12.05;89.45;101876.03;5059215;28;45319;-60
2022/03/15 08:45:29;;;;;;;;;36.75;27.00;;;;;12.00;89.26;101872.63;5059478;28;45440;-60
2022/03/15 08:47:54;;;;;;;;;32.25;26.25;;;;;12.01;89.33;101876.94;5059130;28;45494;-60
2022/03/15 08:50:20;;;;;;;;;25.25;24.00;;;;;12.05;89.72;101882.13;5057455;28;47074;-59
2022/03/15 08:52:47;;;;;;;;;28.00;27.00;;;;;12.08;89.39;101884.66;5059037;28;45371;-60
2022/03/15 08:55:14;;;;;;;;;17.75;16.75;;;;;12.11;89.17;101891.56;5059095;28;45294;-59
2022/03/15 08:57:39;;;;;;;;;25.25;22.00;;;;;12.14;89.40;101886.31;5058978;28;45236;-58
2022/03/15 09:00:06;;;;;;;;;33.25;26.50;;;;;12.17;89.28;101891.47;5058767;28;45217;-58
2022/03/15 09:02:32;;;;;;;;;34.00;23.00;;;;;12.16;89.06;101890.59;5058990;28;45846;-59
2022/03/15 09:04:57;;;;;;;;;26.00;22.25;;;;;12.19;89.07;101889.69;5059319;28;45388;-59
2022/03/15 09:07:23;;;;;;;;;32.25;26.00;;;;;12.19;89.10;101892.31;5056889;28;45330;-59
2022/03/15 09:09:48;;;;;;;;;40.75;26.00;;;;;12.22;89.58;101904.44;5056145;28;45981;-59
2022/03/15 09:12:14;;;;;;;;;28.50;23.75;;;;;12.17;89.15;101913.19;5060659;28;45240;-59
2022/03/15 09:14:39;;;;;;;;;32.50;23.00;;;;;12.16;89.41;101921.88;5062462;28;45410;-59
2022/03/15 09:17:06;;;;;;;;;29.00;24.75;;;;;12.16;89.80;101901.03;5062213;28;45248;-63
2022/03/15 09:19:32;;;;;;;;;29.25;26.50;;;;;12.14;89.87;101892.38;5062123;28;46352;-59
2022/03/15 09:21:57;;;;;;;;;34.00;25.75;;;;;12.15;89.88;101909.72;5061882;28;45193;-59
2022/03/15 09:24:23;;;;;;;;;29.75;24.75;;;;;12.18;90.05;101907.06;5061428;28;45306;-59
2022/03/15 09:26:48;;;;;;;;;38.50;30.50;;;;;12.17;90.32;101899.28;5061944;28;45218;-59
2022/03/15 09:29:14;;;;;;;;;34.75;29.00;;;;;12.17;90.40;101897.53;5077784;28;47239;-59
2022/03/15 09:31:39;;;;;;;;;33.00;27.75;;;;;12.21;90.07;101900.94;5061911;28;45481;-59
2022/03/15 09:34:05;;;;;;;;;25.00;24.25;;;;;12.22;90.05;101902.69;5061881;28;45355;-59
2022/03/15 09:36:31;;;;;;;;;30.25;25.25;;;;;12.20;90.25;101899.22;5061611;28;45290;-59
2022/03/15 09:38:58;;;;;;;;;31.50;25.25;;;;;12.22;90.44;101889.66;5061038;28;46421;-59
2022/03/15 09:41:27;;;;;;;;;30.75;24.25;;;;;12.23;90.70;101894.00;5062000;28;45477;-60
2022/03/15 09:43:54;;;;;;;;;30.50;23.50;;;;;12.27;90.88;101886.97;5062396;28;45245;-59
2022/03/15 09:46:21;;;;;;;;;37.25;34.25;;;;;12.35;90.58;101880.75;5062060;28;45277;-59
2022/03/15 09:48:51;;;;;;;;;32.25;28.25;;;;;12.36;90.58;101879.84;5062004;28;47026;-59
2022/03/15 09:51:18;;;;;;;;;36.25;28.00;;;;;12.41;90.32;101880.66;5061641;28;45267;-59
2022/03/15 09:53:44;;;;;;;;;30.50;22.75;;;;;12.45;90.66;101882.31;5076587;27;45386;-60
2022/03/15 09:56:14;;;;;;;;;32.50;28.00;;;;;12.49;90.60;101868.34;5060961;28;45619;-59
2022/03/15 09:58:39;;;;;;;;;34.00;27.75;;;;;12.57;91.08;101870.81;5061364;28;45325;-59
2022/03/15 10:01:05;;;;;;;;;36.00;25.75;;;;;12.65;90.16;101860.25;5060265;28;45714;-59
2022/03/15 10:03:31;;;;;;;;;33.00;29.75;;;;;12.67;89.86;101866.31;5061785;28;45608;-59
2022/03/15 10:05:56;;;;;;;;;30.75;29.75;;;;;12.60;89.65;101868.16;5061343;28;45372;-59
2022/03/15 10:08:22;;;;;;;;;36.75;27.50;;;;;12.54;90.30;101867.41;5060785;28;45902;-59
2022/03/15 10:10:50;;;;;;;;;38.00;33.50;;;;;12.43;90.34;101868.47;5061070;28;45219;-59
2022/03/15 10:13:16;;;;;;;;;36.25;27.75;;;;;12.41;91.15;101872.84;5061567;28;45271;-59
2022/03/15 10:15:59;;;;;;;;;44.50;33.50;;;;;12.36;91.46;101871.19;5061189;28;45526;-59
2022/03/15 10:18:25;;;;;;;;;34.25;30.00;;;;;12.36;92.02;101872.03;5061224;28;46197;-60
2022/03/15 10:20:51;;;;;;;;;33.25;29.50;;;;;12.37;90.96;101873.75;5061520;28;45394;-60
2022/03/15 10:23:19;;;;;;;;;33.75;32.50;;;;;12.32;91.15;101862.56;5060190;28;45418;-60
2022/03/15 10:25:50;;;;;;;;;40.25;33.50;;;;;12.32;91.20;101864.31;5061112;28;45444;-59
2022/03/15 10:28:16;;;;;;;;;36.50;32.00;;;;;12.32;91.58;101857.34;5061093;28;46162;-60
2022/03/15 10:30:43;;;;;;;;;37.75;30.50;;;;;12.35;91.23;101862.50;5061339;28;45348;-60
2022/03/15 10:33:09;;;;;;;;;37.75;32.50;;;;;12.35;91.27;101867.72;5060993;28;45288;-60
2022/03/15 10:35:43;;;;;;;;;42.50;34.00;;;;;12.32;90.88;101867.78;5060748;28;45287;-60
2022/03/15 10:38:10;;;;;;;;;31.00;29.50;;;;;12.27;91.54;101859.16;5059872;28;45378;-60
2022/03/15 10:40:41;;;;;;;;;43.00;32.75;;;;;12.27;91.17;101856.56;5061025;28;45476;-60
2022/03/15 10:43:25;;;;;;;;;36.00;33.00;;;;;12.25;91.37;101849.66;5059089;28;45302;-60
2022/03/15 10:45:58;;;;;;;;;37.25;30.50;;;;;12.25;91.52;101858.34;5058374;28;45223;-60
2022/03/15 10:48:27;;;;;;;;;33.50;32.75;;;;;12.26;91.72;101851.38;5060342;28;46067;-59
2022/03/15 10:51:00;;;;;;;;;38.75;34.50;;;;;12.26;91.98;101856.59;5060022;28;45293;-59
2022/03/15 10:53:36;;;;;;;;;49.50;38.75;;;;;12.29;92.14;101844.38;5060119;28;45296;-59
2022/03/15 10:56:12;;;;;;;;;32.25;27.50;;;;;12.31;92.30;101847.81;5059979;28;45387;-59
2022/03/15 10:58:48;;;;;;;;;40.00;32.50;;;;;12.28;91.97;101850.47;5060248;28;45571;-59
2022/03/15 11:01:17;;;;;;;;;39.25;34.25;;;;;12.29;92.17;101852.19;5059744;28;45861;-59
2022/03/15 11:03:57;;;;;;;;;42.25;36.25;;;;;12.33;91.85;101850.38;5060178;28;45352;-59
2022/03/15 11:06:41;;;;;;;;;42.25;31.25;;;;;12.37;91.43;101854.66;5048188;28;45341;-59
2022/03/15 11:09:27;;;;;;;;;41.25;34.50;;;;;12.35;91.44;101852.06;5059152;28;45310;-59